sensor_id;sensor_type;location;lat;lon;timestamp;temperature;humidity
38090;DHT22;23904;52.322;10.232;2024-01-16T00:00:50;1.70;99.90
38090;DHT22;23904;52.322;10.232;2024-01-16T00:03:16;1.60;99.90
38090;DHT22;23904;52.322;10.232;2024-01-16T00:05:42;1.60;99.90
38090;DHT22;23904;52.322;10.232;2024-01-16T00:08:07;1.60;99.90
38090;DHT22;23904;52.322;10.232;2024-01-16T00:10:33;1.60;99.90
38090;DHT22;23904;52.322;10.232;2024-01-16T00:12:58;1.60;99.90
38090;DHT22;23904;52.322;10.232;2024-01-16T00:15:24;1.70;99.90
38090;DHT22;23904;52.322;10.232;2024-01-16T00:17:49;1.60;99.90
38090;DHT22;23904;52.322;10.232;2024-01-16T00:20:15;1.60;99.90
38090;DHT22;23904;52.322;10.232;2024-01-16T00:22:40;1.70;99.90
38090;DHT22;23904;52.322;10.232;2024-01-16T00:25:06;1.70;99.90
38090;DHT22;23904;52.322;10.232;2024-01-16T00:27:32;1.60;99.90
38090;DHT22;23904;52.322;10.232;2024-01-16T00:29:57;1.60;99.90
38090;DHT22;23904;52.322;10.232;2024-01-16T00:32:26;1.60;99.90
38090;DHT22;23904;52.322;10.232;2024-01-16T00:34:51;1.60;99.90
38090;DHT22;23904;52.322;10.232;2024-01-16T00:37:17;1.60;99.90
38090;DHT22;23904;52.322;10.232;2024-01-16T00:39:43;1.60;99.90
38090;DHT22;23904;52.322;10.232;2024-01-16T00:42:08;1.60;99.90
38090;DHT22;23904;52.322;10.232;2024-01-16T00:44:34;1.60;99.90
38090;DHT22;23904;52.322;10.232;2024-01-16T00:47:00;1.60;99.90
38090;DHT22;23904;52.322;10.232;2024-01-16T00:49:27;1.60;99.90
38090;DHT22;23904;52.322;10.232;2024-01-16T00:51:53;1.60;99.90
38090;DHT22;23904;52.322;10.232;2024-01-16T00:54:19;1.60;99.90
38090;DHT22;23904;52.322;10.232;2024-01-16T00:56:44;1.60;99.90
38090;DHT22;23904;52.322;10.232;2024-01-16T00:59:10;1.60;99.90
38090;DHT22;23904;52.322;10.232;2024-01-16T01:01:37;1.60;99.90
38090;DHT22;23904;52.322;10.232;2024-01-16T01:04:03;1.60;99.90
38090;DHT22;23904;52.322;10.232;2024-01-16T01:06:29;1.50;99.90
38090;DHT22;23904;52.322;10.232;2024-01-16T01:08:54;1.50;99.90
38090;DHT22;23904;52.322;10.232;2024-01-16T01:11:19;1.50;99.90
38090;DHT22;23904;52.322;10.232;2024-01-16T01:13:45;1.50;99.90
38090;DHT22;23904;52.322;10.232;2024-01-16T01:16:11;1.50;99.90
38090;DHT22;23904;52.322;10.232;2024-01-16T01:18:37;1.50;99.90
38090;DHT22;23904;52.322;10.232;2024-01-16T01:21:02;1.50;99.90
38090;DHT22;23904;52.322;10.232;2024-01-16T01:23:28;1.50;99.90
38090;DHT22;23904;52.322;10.232;2024-01-16T01:25:53;1.50;99.90
38090;DHT22;23904;52.322;10.232;2024-01-16T01:28:19;1.50;99.90
38090;DHT22;23904;52.322;10.232;2024-01-16T01:30:44;1.50;99.90
38090;DHT22;23904;52.322;10.232;2024-01-16T01:33:10;1.50;99.90
38090;DHT22;23904;52.322;10.232;2024-01-16T01:35:37;1.50;99.90
38090;DHT22;23904;52.322;10.232;2024-01-16T01:38:02;1.50;99.90
38090;DHT22;23904;52.322;10.232;2024-01-16T01:40:28;1.50;99.90
38090;DHT22;23904;52.322;10.232;2024-01-16T01:42:53;1.50;99.90
38090;DHT22;23904;52.322;10.232;2024-01-16T01:45:19;1.50;99.90
38090;DHT22;23904;52.322;10.232;2024-01-16T01:47:45;1.40;99.90
38090;DHT22;23904;52.322;10.232;2024-01-16T01:50:11;1.50;99.90
38090;DHT22;23904;52.322;10.232;2024-01-16T01:52:39;1.50;99.90
38090;DHT22;23904;52.322;10.232;2024-01-16T01:55:08;1.50;99.90
38090;DHT22;23904;52.322;10.232;2024-01-16T01:57:37;1.50;99.90
38090;DHT22;23904;52.322;10.232;2024-01-16T02:00:03;1.50;99.90
38090;DHT22;23904;52.322;10.232;2024-01-16T02:02:31;1.40;99.90
38090;DHT22;23904;52.322;10.232;2024-01-16T02:04:57;1.40;99.90
38090;DHT22;23904;52.322;10.232;2024-01-16T02:07:23;1.40;99.90
38090;DHT22;23904;52.322;10.232;2024-01-16T02:09:49;1.40;99.90
38090;DHT22;23904;52.322;10.232;2024-01-16T02:12:15;1.40;99.90
38090;DHT22;23904;52.322;10.232;2024-01-16T02:14:40;1.40;99.90
38090;DHT22;23904;52.322;10.232;2024-01-16T02:17:06;1.30;99.90
38090;DHT22;23904;52.322;10.232;2024-01-16T02:19:31;1.30;99.90
38090;DHT22;23904;52.322;10.232;2024-01-16T02:21:59;1.30;99.90
38090;DHT22;23904;52.322;10.232;2024-01-16T02:24:26;1.30;99.90
38090;DHT22;23904;52.322;10.232;2024-01-16T02:26:51;1.20;99.90
38090;DHT22;23904;52.322;10.232;2024-01-16T02:29:17;1.10;99.90
38090;DHT22;23904;52.322;10.232;2024-01-16T02:31:43;1.10;99.90
38090;DHT22;23904;52.322;10.232;2024-01-16T02:34:08;1.00;99.90
38090;DHT22;23904;52.322;10.232;2024-01-16T02:36:34;1.00;99.90
38090;DHT22;23904;52.322;10.232;2024-01-16T02:39:00;1.00;99.90
38090;DHT22;23904;52.322;10.232;2024-01-16T02:41:26;0.90;99.90
38090;DHT22;23904;52.322;10.232;2024-01-16T02:43:51;0.90;99.90
38090;DHT22;23904;52.322;10.232;2024-01-16T02:46:17;0.90;99.90
38090;DHT22;23904;52.322;10.232;2024-01-16T02:48:43;0.90;99.90
38090;DHT22;23904;52.322;10.232;2024-01-16T02:51:09;0.90;99.90
38090;DHT22;23904;52.322;10.232;2024-01-16T02:53:34;0.90;99.90
38090;DHT22;23904;52.322;10.232;2024-01-16T02:56:00;1.00;99.90
38090;DHT22;23904;52.322;10.232;2024-01-16T02:58:26;1.00;99.90
38090;DHT22;23904;52.322;10.232;2024-01-16T03:00:52;1.00;99.90
38090;DHT22;23904;52.322;10.232;2024-01-16T03:03:18;1.10;99.90
38090;DHT22;23904;52.322;10.232;2024-01-16T03:05:44;1.20;99.90
38090;DHT22;23904;52.322;10.232;2024-01-16T03:08:10;1.20;99.90
38090;DHT22;23904;52.322;10.232;2024-01-16T03:10:35;1.20;99.90
38090;DHT22;23904;52.322;10.232;2024-01-16T03:13:01;1.20;99.90
38090;DHT22;23904;52.322;10.232;2024-01-16T03:15:28;1.10;99.90
38090;DHT22;23904;52.322;10.232;2024-01-16T03:17:56;1.10;99.90
38090;DHT22;23904;52.322;10.232;2024-01-16T03:20:25;1.10;99.90
38090;DHT22;23904;52.322;10.232;2024-01-16T03:22:51;1.00;99.90
38090;DHT22;23904;52.322;10.232;2024-01-16T03:25:17;1.10;99.90
38090;DHT22;23904;52.322;10.232;2024-01-16T03:27:42;1.00;99.90
38090;DHT22;23904;52.322;10.232;2024-01-16T03:30:09;1.10;99.90
38090;DHT22;23904;52.322;10.232;2024-01-16T03:32:36;1.00;99.90
38090;DHT22;23904;52.322;10.232;2024-01-16T03:35:03;1.00;99.90
38090;DHT22;23904;52.322;10.232;2024-01-16T03:37:29;0.90;99.90
38090;DHT22;23904;52.322;10.232;2024-01-16T03:39:54;0.90;99.90
38090;DHT22;23904;52.322;10.232;2024-01-16T03:42:20;0.90;99.90
38090;DHT22;23904;52.322;10.232;2024-01-16T03:44:46;0.90;99.90
38090;DHT22;23904;52.322;10.232;2024-01-16T03:47:12;0.80;99.90
38090;DHT22;23904;52.322;10.232;2024-01-16T03:49:38;0.80;99.90
38090;DHT22;23904;52.322;10.232;2024-01-16T03:52:04;0.80;99.90
38090;DHT22;23904;52.322;10.232;2024-01-16T03:54:30;0.80;99.90
38090;DHT22;23904;52.322;10.232;2024-01-16T03:56:56;0.80;99.90
38090;DHT22;23904;52.322;10.232;2024-01-16T03:59:21;0.80;99.90
38090;DHT22;23904;52.322;10.232;2024-01-16T04:01:47;0.80;99.90
38090;DHT22;23904;52.322;10.232;2024-01-16T04:04:14;0.80;99.90
38090;DHT22;23904;52.322;10.232;2024-01-16T04:06:40;0.80;99.90
38090;DHT22;23904;52.322;10.232;2024-01-16T04:09:05;0.80;99.90
38090;DHT22;23904;52.322;10.232;2024-01-16T04:11:31;0.80;99.90
38090;DHT22;23904;52.322;10.232;2024-01-16T04:13:56;0.80;99.90
38090;DHT22;23904;52.322;10.232;2024-01-16T04:16:22;0.80;99.90
38090;DHT22;23904;52.322;10.232;2024-01-16T04:18:48;0.80;99.90
38090;DHT22;23904;52.322;10.232;2024-01-16T04:21:13;0.80;99.90
38090;DHT22;23904;52.322;10.232;2024-01-16T04:23:39;0.80;99.90
38090;DHT22;23904;52.322;10.232;2024-01-16T04:26:06;0.80;99.90
38090;DHT22;23904;52.322;10.232;2024-01-16T04:28:33;0.80;99.90
38090;DHT22;23904;52.322;10.232;2024-01-16T04:31:00;0.80;99.90
38090;DHT22;23904;52.322;10.232;2024-01-16T04:33:27;0.80;99.90
38090;DHT22;23904;52.322;10.232;2024-01-16T04:35:52;0.80;99.90
38090;DHT22;23904;52.322;10.232;2024-01-16T04:38:18;0.80;99.90
38090;DHT22;23904;52.322;10.232;2024-01-16T04:40:43;0.80;99.90
38090;DHT22;23904;52.322;10.232;2024-01-16T04:43:09;0.80;99.90
38090;DHT22;23904;52.322;10.232;2024-01-16T04:45:34;0.80;99.90
38090;DHT22;23904;52.322;10.232;2024-01-16T04:48:00;0.80;99.90
38090;DHT22;23904;52.322;10.232;2024-01-16T04:50:25;0.80;99.90
38090;DHT22;23904;52.322;10.232;2024-01-16T04:52:59;0.80;99.90
38090;DHT22;23904;52.322;10.232;2024-01-16T04:55:29;0.80;99.90
38090;DHT22;23904;52.322;10.232;2024-01-16T04:57:55;0.80;99.90
38090;DHT22;23904;52.322;10.232;2024-01-16T05:00:21;0.80;99.90
38090;DHT22;23904;52.322;10.232;2024-01-16T05:02:47;0.80;99.90
38090;DHT22;23904;52.322;10.232;2024-01-16T05:05:13;0.80;99.90
38090;DHT22;23904;52.322;10.232;2024-01-16T05:07:39;0.80;99.90
38090;DHT22;23904;52.322;10.232;2024-01-16T05:10:05;0.80;99.90
38090;DHT22;23904;52.322;10.232;2024-01-16T05:12:32;0.80;99.90
38090;DHT22;23904;52.322;10.232;2024-01-16T05:14:58;0.80;99.90
38090;DHT22;23904;52.322;10.232;2024-01-16T05:17:23;0.80;99.90
38090;DHT22;23904;52.322;10.232;2024-01-16T05:19:49;0.80;99.90
38090;DHT22;23904;52.322;10.232;2024-01-16T05:22:15;0.80;99.90
38090;DHT22;23904;52.322;10.232;2024-01-16T05:24:40;0.70;99.90
38090;DHT22;23904;52.322;10.232;2024-01-16T05:27:06;0.70;99.90
38090;DHT22;23904;52.322;10.232;2024-01-16T05:29:32;0.70;99.90
38090;DHT22;23904;52.322;10.232;2024-01-16T05:31:57;0.70;99.90
38090;DHT22;23904;52.322;10.232;2024-01-16T05:34:23;0.80;99.90
38090;DHT22;23904;52.322;10.232;2024-01-16T05:36:49;0.80;99.90
38090;DHT22;23904;52.322;10.232;2024-01-16T05:39:14;0.80;99.90
38090;DHT22;23904;52.322;10.232;2024-01-16T05:41:40;0.70;99.90
38090;DHT22;23904;52.322;10.232;2024-01-16T05:44:05;0.70;99.90
38090;DHT22;23904;52.322;10.232;2024-01-16T05:46:32;0.70;99.90
38090;DHT22;23904;52.322;10.232;2024-01-16T05:48:57;0.70;99.90
38090;DHT22;23904;52.322;10.232;2024-01-16T05:51:23;0.70;99.90
38090;DHT22;23904;52.322;10.232;2024-01-16T05:53:50;0.80;99.90
38090;DHT22;23904;52.322;10.232;2024-01-16T05:56:16;0.80;99.90
38090;DHT22;23904;52.322;10.232;2024-01-16T05:58:41;0.80;99.90
38090;DHT22;23904;52.322;10.232;2024-01-16T06:01:07;0.80;99.90
38090;DHT22;23904;52.322;10.232;2024-01-16T06:03:32;0.70;99.90
38090;DHT22;23904;52.322;10.232;2024-01-16T06:05:58;0.80;99.90
38090;DHT22;23904;52.322;10.232;2024-01-16T06:08:24;0.70;99.90
38090;DHT22;23904;52.322;10.232;2024-01-16T06:10:51;0.70;99.90
38090;DHT22;23904;52.322;10.232;2024-01-16T06:13:18;0.60;99.90
38090;DHT22;23904;52.322;10.232;2024-01-16T06:15:44;0.60;99.90
38090;DHT22;23904;52.322;10.232;2024-01-16T06:18:09;0.60;99.90
38090;DHT22;23904;52.322;10.232;2024-01-16T06:20:35;0.50;99.90
38090;DHT22;23904;52.322;10.232;2024-01-16T06:23:01;0.50;99.90
38090;DHT22;23904;52.322;10.232;2024-01-16T06:25:26;0.50;99.90
38090;DHT22;23904;52.322;10.232;2024-01-16T06:27:52;0.60;99.90
38090;DHT22;23904;52.322;10.232;2024-01-16T06:30:17;0.50;99.90
38090;DHT22;23904;52.322;10.232;2024-01-16T06:32:43;0.50;99.90
38090;DHT22;23904;52.322;10.232;2024-01-16T06:35:08;0.40;99.90
38090;DHT22;23904;52.322;10.232;2024-01-16T06:37:34;0.50;99.90
38090;DHT22;23904;52.322;10.232;2024-01-16T06:39:59;0.40;99.90
38090;DHT22;23904;52.322;10.232;2024-01-16T06:42:25;0.40;99.90
38090;DHT22;23904;52.322;10.232;2024-01-16T06:44:50;0.50;99.90
38090;DHT22;23904;52.322;10.232;2024-01-16T06:47:16;0.50;99.90
38090;DHT22;23904;52.322;10.232;2024-01-16T06:49:41;0.50;99.90
38090;DHT22;23904;52.322;10.232;2024-01-16T06:52:08;0.50;99.90
38090;DHT22;23904;52.322;10.232;2024-01-16T06:54:34;0.60;99.90
38090;DHT22;23904;52.322;10.232;2024-01-16T06:57:00;0.60;99.90
38090;DHT22;23904;52.322;10.232;2024-01-16T06:59:25;0.60;99.90
38090;DHT22;23904;52.322;10.232;2024-01-16T07:01:51;0.60;99.90
38090;DHT22;23904;52.322;10.232;2024-01-16T07:04:17;0.60;99.90
38090;DHT22;23904;52.322;10.232;2024-01-16T07:06:42;0.60;99.90
38090;DHT22;23904;52.322;10.232;2024-01-16T07:09:09;0.60;99.90
38090;DHT22;23904;52.322;10.232;2024-01-16T07:11:38;0.60;99.90
38090;DHT22;23904;52.322;10.232;2024-01-16T07:14:08;0.60;99.90
38090;DHT22;23904;52.322;10.232;2024-01-16T07:16:35;0.50;99.90
38090;DHT22;23904;52.322;10.232;2024-01-16T07:19:01;0.60;99.90
38090;DHT22;23904;52.322;10.232;2024-01-16T07:21:27;0.60;99.90
38090;DHT22;23904;52.322;10.232;2024-01-16T07:23:54;0.60;99.90
38090;DHT22;23904;52.322;10.232;2024-01-16T07:26:19;0.70;99.90
38090;DHT22;23904;52.322;10.232;2024-01-16T07:28:45;0.70;99.90
38090;DHT22;23904;52.322;10.232;2024-01-16T07:31:13;0.70;99.90
38090;DHT22;23904;52.322;10.232;2024-01-16T07:33:39;0.70;99.90
38090;DHT22;23904;52.322;10.232;2024-01-16T07:36:06;0.70;99.90
38090;DHT22;23904;52.322;10.232;2024-01-16T07:38:33;0.80;99.90
38090;DHT22;23904;52.322;10.232;2024-01-16T07:40:59;0.80;99.90
38090;DHT22;23904;52.322;10.232;2024-01-16T07:43:24;0.80;99.90
38090;DHT22;23904;52.322;10.232;2024-01-16T07:45:50;0.80;99.90
38090;DHT22;23904;52.322;10.232;2024-01-16T07:48:16;0.70;99.90
38090;DHT22;23904;52.322;10.232;2024-01-16T07:50:41;0.80;99.90
38090;DHT22;23904;52.322;10.232;2024-01-16T07:53:07;0.80;99.90
38090;DHT22;23904;52.322;10.232;2024-01-16T07:55:32;0.80;99.90
38090;DHT22;23904;52.322;10.232;2024-01-16T07:57:58;0.80;99.90
38090;DHT22;23904;52.322;10.232;2024-01-16T08:00:23;0.90;99.90
38090;DHT22;23904;52.322;10.232;2024-01-16T08:02:49;0.90;99.90
38090;DHT22;23904;52.322;10.232;2024-01-16T08:05:14;0.90;99.90
38090;DHT22;23904;52.322;10.232;2024-01-16T08:07:42;0.90;99.90
38090;DHT22;23904;52.322;10.232;2024-01-16T08:10:09;0.90;99.90
38090;DHT22;23904;52.322;10.232;2024-01-16T08:12:34;0.90;99.90
38090;DHT22;23904;52.322;10.232;2024-01-16T08:15:00;0.90;99.90
38090;DHT22;23904;52.322;10.232;2024-01-16T08:17:25;0.90;99.90
38090;DHT22;23904;52.322;10.232;2024-01-16T08:19:51;0.90;99.90
38090;DHT22;23904;52.322;10.232;2024-01-16T08:22:16;0.90;99.90
38090;DHT22;23904;52.322;10.232;2024-01-16T08:24:42;0.90;99.90
38090;DHT22;23904;52.322;10.232;2024-01-16T08:27:07;0.90;99.90
38090;DHT22;23904;52.322;10.232;2024-01-16T08:29:33;1.00;99.90
38090;DHT22;23904;52.322;10.232;2024-01-16T08:31:59;1.00;99.90
38090;DHT22;23904;52.322;10.232;2024-01-16T08:34:24;1.00;99.90
38090;DHT22;23904;52.322;10.232;2024-01-16T08:36:50;1.00;99.90
38090;DHT22;23904;52.322;10.232;2024-01-16T08:39:15;1.10;99.90
38090;DHT22;23904;52.322;10.232;2024-01-16T08:41:42;1.10;99.90
38090;DHT22;23904;52.322;10.232;2024-01-16T08:44:07;1.10;99.90
38090;DHT22;23904;52.322;10.232;2024-01-16T08:46:33;1.10;99.90
38090;DHT22;23904;52.322;10.232;2024-01-16T08:48:58;1.10;99.90
38090;DHT22;23904;52.322;10.232;2024-01-16T08:51:23;1.10;99.90
38090;DHT22;23904;52.322;10.232;2024-01-16T08:53:51;1.10;99.90
38090;DHT22;23904;52.322;10.232;2024-01-16T08:56:16;1.20;99.90
38090;DHT22;23904;52.322;10.232;2024-01-16T08:58:43;1.10;99.90
38090;DHT22;23904;52.322;10.232;2024-01-16T09:01:08;1.20;99.90
38090;DHT22;23904;52.322;10.232;2024-01-16T09:03:35;1.20;99.90
38090;DHT22;23904;52.322;10.232;2024-01-16T09:06:01;1.30;99.90
38090;DHT22;23904;52.322;10.232;2024-01-16T09:08:28;1.30;99.90
38090;DHT22;23904;52.322;10.232;2024-01-16T09:10:54;1.40;99.90
38090;DHT22;23904;52.322;10.232;2024-01-16T09:13:20;1.50;99.90
38090;DHT22;23904;52.322;10.232;2024-01-16T09:15:49;1.60;99.90
38090;DHT22;23904;52.322;10.232;2024-01-16T09:18:16;1.60;99.90
38090;DHT22;23904;52.322;10.232;2024-01-16T09:20:42;1.80;99.90
38090;DHT22;23904;52.322;10.232;2024-01-16T09:23:08;1.80;99.90
38090;DHT22;23904;52.322;10.232;2024-01-16T09:25:34;1.90;99.90
38090;DHT22;23904;52.322;10.232;2024-01-16T09:28:01;1.90;99.90
38090;DHT22;23904;52.322;10.232;2024-01-16T09:30:27;1.80;99.90
38090;DHT22;23904;52.322;10.232;2024-01-16T09:32:52;1.80;99.90
38090;DHT22;23904;52.322;10.232;2024-01-16T09:35:18;1.80;99.90
38090;DHT22;23904;52.322;10.232;2024-01-16T09:37:44;1.90;99.90
38090;DHT22;23904;52.322;10.232;2024-01-16T09:40:10;1.90;99.90
38090;DHT22;23904;52.322;10.232;2024-01-16T09:42:36;1.90;99.90
38090;DHT22;23904;52.322;10.232;2024-01-16T09:45:02;2.00;99.90
38090;DHT22;23904;52.322;10.232;2024-01-16T09:47:32;2.20;99.90
38090;DHT22;23904;52.322;10.232;2024-01-16T09:50:00;2.30;99.90
38090;DHT22;23904;52.322;10.232;2024-01-16T09:52:28;2.40;99.90
38090;DHT22;23904;52.322;10.232;2024-01-16T09:54:54;2.40;99.90
38090;DHT22;23904;52.322;10.232;2024-01-16T09:57:25;2.40;99.90
38090;DHT22;23904;52.322;10.232;2024-01-16T09:59:51;2.50;99.90
38090;DHT22;23904;52.322;10.232;2024-01-16T10:02:19;2.40;99.90
38090;DHT22;23904;52.322;10.232;2024-01-16T10:04:46;2.20;99.90
38090;DHT22;23904;52.322;10.232;2024-01-16T10:07:12;2.30;99.90
38090;DHT22;23904;52.322;10.232;2024-01-16T10:09:39;2.50;99.90
38090;DHT22;23904;52.322;10.232;2024-01-16T10:12:06;2.60;99.90
38090;DHT22;23904;52.322;10.232;2024-01-16T10:14:33;2.70;99.90
38090;DHT22;23904;52.322;10.232;2024-01-16T10:16:59;3.00;99.90
38090;DHT22;23904;52.322;10.232;2024-01-16T10:19:31;3.40;99.90
38090;DHT22;23904;52.322;10.232;2024-01-16T10:22:03;3.80;99.90
38090;DHT22;23904;52.322;10.232;2024-01-16T10:24:30;3.90;99.90
38090;DHT22;23904;52.322;10.232;2024-01-16T10:27:00;4.00;99.90
38090;DHT22;23904;52.322;10.232;2024-01-16T10:29:28;4.20;99.90
38090;DHT22;23904;52.322;10.232;2024-01-16T10:31:54;4.40;99.90
38090;DHT22;23904;52.322;10.232;2024-01-16T10:34:23;4.80;99.90
38090;DHT22;23904;52.322;10.232;2024-01-16T10:36:50;4.70;99.90
38090;DHT22;23904;52.322;10.232;2024-01-16T10:39:17;4.60;99.90
38090;DHT22;23904;52.322;10.232;2024-01-16T10:41:59;4.20;99.90
38090;DHT22;23904;52.322;10.232;2024-01-16T10:44:25;3.90;99.90
38090;DHT22;23904;52.322;10.232;2024-01-16T10:46:57;3.70;99.90
38090;DHT22;23904;52.322;10.232;2024-01-16T10:49:35;3.60;99.90
38090;DHT22;23904;52.322;10.232;2024-01-16T10:52:01;3.50;99.90
38090;DHT22;23904;52.322;10.232;2024-01-16T10:54:27;3.50;99.90
38090;DHT22;23904;52.322;10.232;2024-01-16T10:56:53;3.30;99.90
38090;DHT22;23904;52.322;10.232;2024-01-16T10:59:34;3.40;99.90
38090;DHT22;23904;52.322;10.232;2024-01-16T11:02:09;3.30;99.90
38090;DHT22;23904;52.322;10.232;2024-01-16T11:04:37;3.30;99.90
38090;DHT22;23904;52.322;10.232;2024-01-16T11:07:04;3.30;99.90
38090;DHT22;23904;52.322;10.232;2024-01-16T11:09:31;3.30;99.90
38090;DHT22;23904;52.322;10.232;2024-01-16T11:11:57;3.20;99.90
38090;DHT22;23904;52.322;10.232;2024-01-16T11:14:25;3.30;99.90
38090;DHT22;23904;52.322;10.232;2024-01-16T11:16:51;3.30;99.90
38090;DHT22;23904;52.322;10.232;2024-01-16T11:19:18;3.30;99.90
38090;DHT22;23904;52.322;10.232;2024-01-16T11:21:45;3.30;99.90
38090;DHT22;23904;52.322;10.232;2024-01-16T11:24:12;3.20;99.90
38090;DHT22;23904;52.322;10.232;2024-01-16T11:26:40;3.20;99.90
38090;DHT22;23904;52.322;10.232;2024-01-16T11:29:41;3.20;99.90
38090;DHT22;23904;52.322;10.232;2024-01-16T11:32:06;3.20;99.90
38090;DHT22;23904;52.322;10.232;2024-01-16T11:37:11;3.10;99.90
38090;DHT22;23904;52.322;10.232;2024-01-16T11:39:37;3.10;99.90
38090;DHT22;23904;52.322;10.232;2024-01-16T11:42:03;3.20;99.90
38090;DHT22;23904;52.322;10.232;2024-01-16T11:44:49;3.10;99.90
38090;DHT22;23904;52.322;10.232;2024-01-16T11:47:23;3.10;99.90
38090;DHT22;23904;52.322;10.232;2024-01-16T11:49:51;3.10;99.90
38090;DHT22;23904;52.322;10.232;2024-01-16T11:52:42;3.20;99.90
38090;DHT22;23904;52.322;10.232;2024-01-16T11:55:28;3.40;99.90
38090;DHT22;23904;52.322;10.232;2024-01-16T11:58:25;3.40;99.90
38090;DHT22;23904;52.322;10.232;2024-01-16T12:01:05;3.50;99.90
38090;DHT22;23904;52.322;10.232;2024-01-16T12:03:31;3.70;99.90
38090;DHT22;23904;52.322;10.232;2024-01-16T12:05:58;3.90;99.90
38090;DHT22;23904;52.322;10.232;2024-01-16T12:08:24;3.90;99.90
38090;DHT22;23904;52.322;10.232;2024-01-16T12:10:50;3.70;99.90
38090;DHT22;23904;52.322;10.232;2024-01-16T12:13:16;3.50;99.90
38090;DHT22;23904;52.322;10.232;2024-01-16T12:15:42;3.50;99.90
38090;DHT22;23904;52.322;10.232;2024-01-16T12:18:09;3.40;99.90
38090;DHT22;23904;52.322;10.232;2024-01-16T12:20:36;3.30;99.90
38090;DHT22;23904;52.322;10.232;2024-01-16T12:23:03;3.20;99.90
38090;DHT22;23904;52.322;10.232;2024-01-16T12:25:32;3.30;99.90
38090;DHT22;23904;52.322;10.232;2024-01-16T12:28:00;3.30;99.90
38090;DHT22;23904;52.322;10.232;2024-01-16T12:30:28;3.20;99.90
38090;DHT22;23904;52.322;10.232;2024-01-16T12:33:12;3.20;99.90
38090;DHT22;23904;52.322;10.232;2024-01-16T12:35:42;3.20;99.90
38090;DHT22;23904;52.322;10.232;2024-01-16T12:38:11;3.10;99.90
38090;DHT22;23904;52.322;10.232;2024-01-16T12:43:13;3.00;99.90
38090;DHT22;23904;52.322;10.232;2024-01-16T12:45:39;2.80;99.90
38090;DHT22;23904;52.322;10.232;2024-01-16T12:48:04;2.90;99.90
38090;DHT22;23904;52.322;10.232;2024-01-16T12:50:31;2.80;99.90
38090;DHT22;23904;52.322;10.232;2024-01-16T12:53:02;2.80;99.90
38090;DHT22;23904;52.322;10.232;2024-01-16T12:55:33;2.70;99.90
38090;DHT22;23904;52.322;10.232;2024-01-16T12:58:19;2.60;99.90
38090;DHT22;23904;52.322;10.232;2024-01-16T13:00:47;2.60;99.90
38090;DHT22;23904;52.322;10.232;2024-01-16T13:03:21;2.50;99.90
38090;DHT22;23904;52.322;10.232;2024-01-16T13:06:00;2.50;99.90
38090;DHT22;23904;52.322;10.232;2024-01-16T13:08:26;2.60;99.90
38090;DHT22;23904;52.322;10.232;2024-01-16T13:11:08;2.60;99.90
38090;DHT22;23904;52.322;10.232;2024-01-16T13:13:35;2.50;99.90
38090;DHT22;23904;52.322;10.232;2024-01-16T13:16:03;2.50;99.90
38090;DHT22;23904;52.322;10.232;2024-01-16T13:18:33;2.50;99.90
38090;DHT22;23904;52.322;10.232;2024-01-16T13:21:00;2.50;99.90
38090;DHT22;23904;52.322;10.232;2024-01-16T13:23:27;2.50;99.90
38090;DHT22;23904;52.322;10.232;2024-01-16T13:25:54;2.40;99.90
38090;DHT22;23904;52.322;10.232;2024-01-16T13:28:21;2.50;99.90
38090;DHT22;23904;52.322;10.232;2024-01-16T13:30:48;2.50;99.90
38090;DHT22;23904;52.322;10.232;2024-01-16T13:33:14;2.40;99.90
38090;DHT22;23904;52.322;10.232;2024-01-16T13:35:43;2.50;99.90
38090;DHT22;23904;52.322;10.232;2024-01-16T13:38:11;2.40;99.90
38090;DHT22;23904;52.322;10.232;2024-01-16T13:40:37;2.40;99.90
38090;DHT22;23904;52.322;10.232;2024-01-16T13:43:03;2.50;99.90
38090;DHT22;23904;52.322;10.232;2024-01-16T13:45:29;2.40;99.90
38090;DHT22;23904;52.322;10.232;2024-01-16T13:47:56;2.50;99.90
38090;DHT22;23904;52.322;10.232;2024-01-16T13:50:22;2.40;99.90
38090;DHT22;23904;52.322;10.232;2024-01-16T13:52:49;2.40;99.90
38090;DHT22;23904;52.322;10.232;2024-01-16T13:55:15;2.30;99.90
38090;DHT22;23904;52.322;10.232;2024-01-16T13:57:41;2.30;99.90
38090;DHT22;23904;52.322;10.232;2024-01-16T14:00:11;2.30;99.90
38090;DHT22;23904;52.322;10.232;2024-01-16T14:02:46;2.30;99.90
38090;DHT22;23904;52.322;10.232;2024-01-16T14:05:16;2.30;99.90
38090;DHT22;23904;52.322;10.232;2024-01-16T14:07:48;2.30;99.90
38090;DHT22;23904;52.322;10.232;2024-01-16T14:10:19;2.30;99.90
38090;DHT22;23904;52.322;10.232;2024-01-16T14:12:46;2.20;99.90
38090;DHT22;23904;52.322;10.232;2024-01-16T14:15:16;2.30;99.90
38090;DHT22;23904;52.322;10.232;2024-01-16T14:17:53;2.20;99.90
38090;DHT22;23904;52.322;10.232;2024-01-16T14:20:21;2.20;99.90
38090;DHT22;23904;52.322;10.232;2024-01-16T14:22:49;2.20;99.90
38090;DHT22;23904;52.322;10.232;2024-01-16T14:25:17;2.20;99.90
38090;DHT22;23904;52.322;10.232;2024-01-16T14:28:05;2.20;99.90
38090;DHT22;23904;52.322;10.232;2024-01-16T14:30:32;2.20;99.90
38090;DHT22;23904;52.322;10.232;2024-01-16T14:32:58;2.20;99.90
38090;DHT22;23904;52.322;10.232;2024-01-16T14:35:24;2.10;99.90
38090;DHT22;23904;52.322;10.232;2024-01-16T14:37:51;2.10;99.90
38090;DHT22;23904;52.322;10.232;2024-01-16T14:40:17;2.10;99.90
38090;DHT22;23904;52.322;10.232;2024-01-16T14:42:49;2.10;99.90
38090;DHT22;23904;52.322;10.232;2024-01-16T14:45:16;2.10;99.90
38090;DHT22;23904;52.322;10.232;2024-01-16T14:47:43;2.00;99.90
38090;DHT22;23904;52.322;10.232;2024-01-16T14:50:10;2.00;99.90
38090;DHT22;23904;52.322;10.232;2024-01-16T14:52:38;2.10;99.90
38090;DHT22;23904;52.322;10.232;2024-01-16T14:55:04;2.10;99.90
38090;DHT22;23904;52.322;10.232;2024-01-16T14:57:32;2.00;99.90
38090;DHT22;23904;52.322;10.232;2024-01-16T15:00:04;2.00;99.90
38090;DHT22;23904;52.322;10.232;2024-01-16T15:02:39;2.00;99.90
38090;DHT22;23904;52.322;10.232;2024-01-16T15:05:05;2.00;99.90
38090;DHT22;23904;52.322;10.232;2024-01-16T15:07:31;2.00;99.90
38090;DHT22;23904;52.322;10.232;2024-01-16T15:09:57;1.90;99.90
38090;DHT22;23904;52.322;10.232;2024-01-16T15:12:22;1.90;99.90
38090;DHT22;23904;52.322;10.232;2024-01-16T15:14:48;1.90;99.90
38090;DHT22;23904;52.322;10.232;2024-01-16T15:17:13;1.90;99.90
38090;DHT22;23904;52.322;10.232;2024-01-16T15:19:39;1.90;99.90
38090;DHT22;23904;52.322;10.232;2024-01-16T15:22:04;1.90;99.90
38090;DHT22;23904;52.322;10.232;2024-01-16T15:24:30;1.80;99.90
38090;DHT22;23904;52.322;10.232;2024-01-16T15:26:56;1.80;99.90
38090;DHT22;23904;52.322;10.232;2024-01-16T15:29:24;1.70;99.90
38090;DHT22;23904;52.322;10.232;2024-01-16T15:31:51;1.70;99.90
38090;DHT22;23904;52.322;10.232;2024-01-16T15:34:21;1.70;99.90